CheckWX is a tool to help pilots better visualize weather data.  It is not intended as a substitute for an official pre-flight weather briefing.

03:00:07 UTC

KASE TAF
Aspen-Pitkin Co / Sardy Field Airport
Aspen, Colorado, USA
KASE 182338Z 1900/1924 VRB03KT P6SM VCTS BKN060CB TEMPO 1901/1904 VRB15G25KT -TSRA BKN040CB FM190500 22005KT P6SM VCSH SCT040 BKN050 FM190600 18005KT P6SM SCT045 BKN050 FM191100 VRB04KT P6SM FEW060 SCT120 FM192000 29010G20KT P6SM FEW080 SCT100

Jun-19@
00:00 UTC

Jun-19 @ 00:00 UTC

Jun-19@
05:00 UTC

Jun-19 @ 05:00 UTC

KASE 182338Z 1900/1924 VRB03KT P6SM VCTS BKN060CB
Wind
  • Variable at 3 KTS
Conditions
Area Thunderstorm
Cloud Levels
  • Broken at 6,000' AGL

Jun-19@
01:00 UTC

Jun-19 @ 01:00 UTC

Jun-19@
04:00 UTC

Jun-19 @ 04:00 UTC

TEMPO 1901/1904 VRB15G25KT -TSRA BKN040CB

Temporary

Temporary Changes expected for less than half the time period

Wind
  • Variable at 15 KTS
  • {Gusting to 25 KTS
Conditions
Light Thunderstorm, Light Rain
Cloud Levels
  • Broken at 4,000' AGL

Jun-19@
05:00 UTC

Jun-19 @ 05:00 UTC

Jun-19@
06:00 UTC

Jun-19 @ 06:00 UTC

FM190500 22005KT P6SM VCSH SCT040 BKN050

From

From Standard forecast or significant change

Wind
  • 220° at 5 KTS
Cloud Levels
  • Scattered at 4,000' AGL
  • Broken at 5,000' AGL

Jun-19@
06:00 UTC

Jun-19 @ 06:00 UTC

Jun-19@
11:00 UTC

Jun-19 @ 11:00 UTC

FM190600 18005KT P6SM SCT045 BKN050

From

From Standard forecast or significant change

Wind
  • 180° at 5 KTS
Cloud Levels
  • Scattered at 4,500' AGL
  • Broken at 5,000' AGL

Jun-19@
11:00 UTC

Jun-19 @ 11:00 UTC

Jun-19@
20:00 UTC

Jun-19 @ 20:00 UTC

FM191100 VRB04KT P6SM FEW060 SCT120

From

From Standard forecast or significant change

Wind
  • Variable at 4 KTS
Cloud Levels
  • Few at 6,000' AGL
  • Scattered at 12,000' AGL

Jun-19@
20:00 UTC

Jun-19 @ 20:00 UTC

Jun-20@
00:00 UTC

Jun-20 @ 00:00 UTC

FM192000 29010G20KT P6SM FEW080 SCT100

From

From Standard forecast or significant change

Wind
  • 290° at 10 KTS
  • {Gusting to 20 KTS
Cloud Levels
  • Few at 8,000' AGL
  • Scattered at 10,000' AGL